Time;durP1;ratioP1;P1;durP2;ratioP2;P2;SDS_P1;SDS_P2;PMS_P1;PMS_P2;Temp;Humidity;BMP_temperature;BMP_pressure;BME280_temperature;BME280_humidity;BME280_pressure;Samples;Min_cycle;Max_cycle;Signal;HPM_P1;HPM_P2
2023/08/03 00:00:35;;;;;;;;;;;;;;;32.61;30.38;96842.63;5072027;28;20019;-88
2023/08/03 00:03:01;;;;;;;;;;;;;;;32.37;31.09;96848.06;5071873;28;19923;-88
2023/08/03 00:05:27;;;;;;;;;;;;;;;32.15;31.25;96845.28;5070991;28;19916;-89
2023/08/03 00:07:53;;;;;;;;;;;;;;;31.82;31.77;96853.81;5071841;28;19999;-88
2023/08/03 00:10:21;;;;;;;;;;;;;;;31.98;30.00;96853.84;5063152;28;19920;-89
2023/08/03 00:12:47;;;;;;;;;;;;;;;32.11;31.08;96856.16;5067594;28;19958;-88
2023/08/03 00:15:14;;;;;;;;;;;;;;;32.24;30.92;96847.09;5072103;28;20417;-88
2023/08/03 00:17:41;;;;;;;;;;;;;;;32.35;30.89;96847.81;5071602;28;19923;-88
2023/08/03 00:20:07;;;;;;;;;;;;;;;32.39;30.12;96850.41;5070548;27;20027;-88
2023/08/03 00:22:34;;;;;;;;;;;;;;;32.59;30.04;96845.22;5063224;28;19968;-88
2023/08/03 00:25:00;;;;;;;;;;;;;;;32.26;30.90;96839.59;5071500;28;19951;-88
2023/08/03 00:27:27;;;;;;;;;;;;;;;31.98;30.86;96841.69;5071154;27;19960;-89
2023/08/03 00:29:53;;;;;;;;;;;;;;;31.97;30.81;96843.75;5070230;27;20374;-88
2023/08/03 00:32:19;;;;;;;;;;;;;;;32.06;30.72;96849.19;5071465;28;19937;-89
2023/08/03 00:34:45;;;;;;;;;;;;;;;32.30;29.93;96848.63;5071408;28;19916;-88
2023/08/03 00:37:12;;;;;;;;;;;;;;;32.22;30.23;96849.66;5071363;28;19924;-89
2023/08/03 00:39:38;;;;;;;;;;;;;;;32.11;30.49;96850.47;5070472;28;19920;-89
2023/08/03 00:42:04;;;;;;;;;;;;;;;32.12;30.80;96852.00;5059331;28;19925;-89
2023/08/03 00:44:30;;;;;;;;;;;;;;;32.31;30.24;96849.38;5051185;28;19956;-89
2023/08/03 00:46:56;;;;;;;;;;;;;;;32.34;30.09;96856.88;5051253;28;19917;-89
2023/08/03 00:49:27;;;;;;;;;;;;;;;32.30;30.63;96851.44;5051385;28;19913;-89
2023/08/03 00:51:54;;;;;;;;;;;;;;;32.16;31.27;96857.44;5051216;28;20274;-89
2023/08/03 00:54:20;;;;;;;;;;;;;;;32.01;31.17;96864.16;5051161;28;19951;-89
2023/08/03 00:56:46;;;;;;;;;;;;;;;31.88;31.38;96857.44;5051413;28;19964;-89
2023/08/03 00:59:12;;;;;;;;;;;;;;;31.70;30.50;96853.03;5049964;28;19956;-89
2023/08/03 01:01:40;;;;;;;;;;;;;;;31.96;31.51;96852.78;5051007;28;19917;-89
2023/08/03 01:04:06;;;;;;;;;;;;;;;32.21;30.87;96851.72;5050916;28;19917;-88
2023/08/03 01:06:32;;;;;;;;;;;;;;;32.48;29.50;96867.19;5050870;28;20330;-89
2023/08/03 01:09:00;;;;;;;;;;;;;;;32.51;30.21;96875.47;5050924;28;19967;-89
2023/08/03 01:11:27;;;;;;;;;;;;;;;32.41;30.63;96864.88;5055437;28;19924;-89
2023/08/03 01:13:54;;;;;;;;;;;;;;;32.65;29.90;96871.53;5056605;28;19956;-89
2023/08/03 01:16:20;;;;;;;;;;;;;;;32.94;29.79;96884.38;5050812;28;19924;-89
2023/08/03 01:18:46;;;;;;;;;;;;;;;32.95;29.83;96873.78;5050829;28;19957;-89
2023/08/03 01:21:14;;;;;;;;;;;;;;;32.88;30.45;96872.25;5050832;28;19917;-89
2023/08/03 01:23:40;;;;;;;;;;;;;;;33.10;30.38;96860.78;5050680;28;20005;-89
2023/08/03 01:26:06;;;;;;;;;;;;;;;33.24;30.77;96865.38;5050510;28;19968;-89
2023/08/03 01:28:32;;;;;;;;;;;;;;;33.40;29.35;96864.50;5050893;28;19917;-89
2023/08/03 01:30:58;;;;;;;;;;;;;;;33.49;29.23;96863.44;5051426;28;19928;-89
2023/08/03 01:33:24;;;;;;;;;;;;;;;33.30;29.95;96865.34;5053014;28;19970;-89
2023/08/03 01:35:51;;;;;;;;;;;;;;;33.35;29.82;96871.00;5053115;28;20278;-89
2023/08/03 01:38:17;;;;;;;;;;;;;;;33.31;29.88;96870.50;5052103;28;20288;-89
2023/08/03 01:40:43;;;;;;;;;;;;;;;33.28;29.70;96860.16;5057126;28;19920;-88
2023/08/03 01:43:09;;;;;;;;;;;;;;;33.27;30.11;96852.94;5070330;28;19929;-89
2023/08/03 01:45:36;;;;;;;;;;;;;;;33.28;31.12;96850.88;5050249;28;19924;-89
2023/08/03 01:48:02;;;;;;;;;;;;;;;33.32;30.29;96846.47;5065629;28;19917;-89
2023/08/03 01:50:28;;;;;;;;;;;;;;;33.36;30.14;96844.09;5070336;28;19928;-89
2023/08/03 01:52:54;;;;;;;;;;;;;;;33.38;29.56;96840.72;5050318;28;19940;-89
2023/08/03 01:55:20;;;;;;;;;;;;;;;33.26;30.32;96828.63;5050218;28;20361;-89
2023/08/03 01:57:46;;;;;;;;;;;;;;;33.31;30.14;96827.03;5050328;28;19924;-89
2023/08/03 02:00:12;;;;;;;;;;;;;;;33.41;30.62;96831.91;5049068;28;19917;-89
2023/08/03 02:02:38;;;;;;;;;;;;;;;33.37;29.58;96822.84;5050519;28;19916;-89
2023/08/03 02:05:06;;;;;;;;;;;;;;;33.26;30.10;96822.94;5050777;28;20288;-89
2023/08/03 02:07:42;;;;;;;;;;;;;;;33.24;29.70;96817.00;5050188;28;19917;-89
2023/08/03 02:10:10;;;;;;;;;;;;;;;33.07;30.75;96821.25;5052247;28;19920;-89
2023/08/03 02:12:36;;;;;;;;;;;;;;;33.18;30.42;96824.81;5068078;28;19931;-89
2023/08/03 02:15:03;;;;;;;;;;;;;;;33.07;30.11;96833.38;5073579;28;19924;-88
2023/08/03 02:17:29;;;;;;;;;;;;;;;32.97;30.43;96829.28;5072299;28;19921;-89
2023/08/03 02:19:55;;;;;;;;;;;;;;;33.13;30.10;96837.00;5053538;28;19980;-89
2023/08/03 02:22:21;;;;;;;;;;;;;;;33.19;30.07;96836.94;5054033;28;20015;-89
2023/08/03 02:24:47;;;;;;;;;;;;;;;33.33;29.82;96833.75;5053175;28;19917;-89
2023/08/03 02:27:13;;;;;;;;;;;;;;;33.38;29.80;96844.34;5053413;28;19962;-89
2023/08/03 02:29:39;;;;;;;;;;;;;;;33.35;29.62;96842.53;5053602;28;19970;-89
2023/08/03 02:32:05;;;;;;;;;;;;;;;33.39;29.34;96848.75;5053502;28;20286;-88
2023/08/03 02:34:32;;;;;;;;;;;;;;;33.39;30.12;96854.44;5053243;28;20011;-89
2023/08/03 02:36:58;;;;;;;;;;;;;;;33.18;29.99;96866.72;5053448;28;19947;-88
2023/08/03 02:39:23;;;;;;;;;;;;;;;32.99;30.08;96862.88;5053559;28;19917;-89
2023/08/03 02:41:50;;;;;;;;;;;;;;;32.98;30.18;96876.31;5056635;28;19992;-89
2023/08/03 02:44:16;;;;;;;;;;;;;;;32.94;30.38;96884.38;5063985;27;19917;-89
2023/08/03 02:46:42;;;;;;;;;;;;;;;32.80;30.89;96884.69;5053048;28;19917;-89
2023/08/03 02:49:08;;;;;;;;;;;;;;;33.00;30.84;96878.66;5052911;28;19924;-89
2023/08/03 02:51:34;;;;;;;;;;;;;;;33.34;29.83;96883.69;5070439;28;19928;-89
2023/08/03 02:54:00;;;;;;;;;;;;;;;33.56;30.15;96882.03;5073072;28;19916;-89
2023/08/03 02:56:26;;;;;;;;;;;;;;;33.50;30.24;96887.72;5054416;28;19969;-89
2023/08/03 02:58:52;;;;;;;;;;;;;;;33.43;30.16;96893.97;5052852;28;19962;-89
2023/08/03 03:01:19;;;;;;;;;;;;;;;33.54;30.47;96907.41;5053068;28;19924;-89
2023/08/03 03:03:45;;;;;;;;;;;;;;;33.65;30.22;96913.81;5052956;28;19977;-88
2023/08/03 03:06:11;;;;;;;;;;;;;;;33.10;30.99;96920.53;5052694;28;19921;-89
2023/08/03 03:08:37;;;;;;;;;;;;;;;33.03;31.07;96912.53;5052824;28;19993;-89
2023/08/03 03:11:03;;;;;;;;;;;;;;;32.94;31.24;96918.50;5052973;28;19925;-88
2023/08/03 03:13:29;;;;;;;;;;;;;;;32.85;31.67;96926.53;5051938;28;19932;-88
2023/08/03 03:15:55;;;;;;;;;;;;;;;32.93;31.31;96934.00;5052904;28;19917;-88
2023/08/03 03:18:21;;;;;;;;;;;;;;;32.86;31.16;96937.38;5052464;28;20288;-89
2023/08/03 03:20:47;;;;;;;;;;;;;;;33.09;30.34;96947.44;5051309;28;19917;-89
2023/08/03 03:23:13;;;;;;;;;;;;;;;33.20;30.81;96949.47;5052473;28;19917;-89
2023/08/03 03:25:39;;;;;;;;;;;;;;;33.26;30.84;96961.56;5052672;28;20385;-89
2023/08/03 03:28:05;;;;;;;;;;;;;;;33.39;30.85;96961.78;5052519;28;19916;-88
2023/08/03 03:30:31;;;;;;;;;;;;;;;33.40;30.82;96961.25;5071363;28;20464;-88
2023/08/03 03:32:57;;;;;;;;;;;;;;;33.03;31.80;96969.44;5072487;28;19963;-89
2023/08/03 03:35:23;;;;;;;;;;;;;;;32.76;32.34;96975.94;5072236;28;19917;-89
2023/08/03 03:37:49;;;;;;;;;;;;;;;32.78;32.18;96984.72;5072332;28;20365;-88
2023/08/03 03:40:15;;;;;;;;;;;;;;;32.96;32.34;96984.16;5072420;28;20274;-89
2023/08/03 03:42:41;;;;;;;;;;;;;;;33.10;31.64;96983.13;5061318;28;20389;-89
2023/08/03 03:45:07;;;;;;;;;;;;;;;33.19;31.40;96979.97;5052294;28;20357;-88
2023/08/03 03:47:33;;;;;;;;;;;;;;;33.27;30.85;96980.22;5071463;28;19920;-89
2023/08/03 03:50:00;;;;;;;;;;;;;;;33.27;31.52;96983.84;5071774;28;19917;-89
2023/08/03 03:52:26;;;;;;;;;;;;;;;33.05;30.76;97008.75;5072142;28;19923;-90
2023/08/03 03:54:52;;;;;;;;;;;;;;;32.77;31.40;97022.97;5072000;28;19917;-89
2023/08/03 03:57:18;;;;;;;;;;;;;;;32.86;30.94;97021.94;5072146;27;19924;-89
2023/08/03 03:59:44;;;;;;;;;;;;;;;33.03;30.43;97036.91;5071994;28;20285;-90
2023/08/03 04:02:10;;;;;;;;;;;;;;;32.96;31.22;97032.50;5071597;28;19916;-89
2023/08/03 04:04:36;;;;;;;;;;;;;;;32.85;31.44;97038.22;5071377;28;19923;-90
2023/08/03 04:07:02;;;;;;;;;;;;;;;32.85;31.08;97035.38;5071898;28;19917;-90
2023/08/03 04:09:28;;;;;;;;;;;;;;;32.93;31.28;97038.47;5071931;28;19923;-90
2023/08/03 04:11:54;;;;;;;;;;;;;;;32.50;31.55;97033.09;5071497;28;19924;-89
2023/08/03 04:14:20;;;;;;;;;;;;;;;31.62;34.81;97024.34;5071840;28;19924;-90
2023/08/03 04:16:46;;;;;;;;;;;;;;;31.62;33.65;97019.47;5072000;28;19913;-90
2023/08/03 04:19:12;;;;;;;;;;;;;;;32.12;33.20;97021.63;5051622;28;19970;-91
2023/08/03 04:21:38;;;;;;;;;;;;;;;32.11;33.10;97020.09;5051770;28;19974;-91
2023/08/03 04:24:04;;;;;;;;;;;;;;;32.34;32.49;97030.19;5051484;28;19912;-90
2023/08/03 04:26:30;;;;;;;;;;;;;;;32.73;32.34;97034.63;5051755;28;19924;-87
2023/08/03 04:28:56;;;;;;;;;;;;;;;33.25;32.40;97031.19;5052122;28;20282;-91
2023/08/03 04:31:22;;;;;;;;;;;;;;;33.65;32.12;97039.09;5051998;28;19924;-93
2023/08/03 04:33:48;;;;;;;;;;;;;;;34.08;31.65;97034.47;5051185;28;19921;-89
2023/08/03 04:36:14;;;;;;;;;;;;;;;34.31;30.12;97040.78;5050684;28;20294;-90
2023/08/03 04:38:40;;;;;;;;;;;;;;;34.19;30.30;97041.41;5051510;28;19917;-90
2023/08/03 04:41:06;;;;;;;;;;;;;;;33.87;30.61;97049.56;5051530;28;19925;-91
2023/08/03 04:43:32;;;;;;;;;;;;;;;33.64;31.72;97048.91;5068758;28;19923;-90
2023/08/03 04:45:58;;;;;;;;;;;;;;;33.77;31.59;97042.66;5071273;28;20015;-90
2023/08/03 04:48:25;;;;;;;;;;;;;;;33.55;31.92;97037.03;5070846;28;20386;-91
2023/08/03 04:50:51;;;;;;;;;;;;;;;33.66;32.05;97046.31;5071088;28;19977;-90
2023/08/03 04:53:17;;;;;;;;;;;;;;;33.93;31.87;97056.03;5070437;28;19916;-90
2023/08/03 04:55:44;;;;;;;;;;;;;;;34.05;31.60;97054.69;5071236;28;19917;-91
2023/08/03 04:58:10;;;;;;;;;;;;;;;33.88;31.40;97045.44;5071177;28;19916;-90
2023/08/03 05:00:36;;;;;;;;;;;;;;;33.74;32.14;97047.31;5071094;28;20011;-90
2023/08/03 05:03:02;;;;;;;;;;;;;;;33.79;31.79;97045.75;5070847;28;19924;-90
2023/08/03 05:05:28;;;;;;;;;;;;;;;33.93;32.22;97045.41;5070931;28;19973;-90
2023/08/03 05:07:54;;;;;;;;;;;;;;;34.33;32.54;97048.81;5070900;28;20304;-90
2023/08/03 05:10:20;;;;;;;;;;;;;;;34.43;32.29;97050.03;5069994;28;19916;-90
2023/08/03 05:12:46;;;;;;;;;;;;;;;34.49;31.30;97051.56;5070800;28;19932;-90
2023/08/03 05:15:12;;;;;;;;;;;;;;;34.44;31.48;97043.81;5070895;28;20301;-90
2023/08/03 05:17:38;;;;;;;;;;;;;;;34.36;31.45;97045.66;5069512;28;19981;-90
2023/08/03 05:20:05;;;;;;;;;;;;;;;34.40;31.04;97042.53;5050909;28;19923;-90
2023/08/03 05:22:31;;;;;;;;;;;;;;;34.32;31.63;97041.56;5050734;28;19917;-90
2023/08/03 05:24:57;;;;;;;;;;;;;;;34.53;32.03;97037.03;5050732;28;20265;-90
2023/08/03 05:27:23;;;;;;;;;;;;;;;34.78;31.92;97040.69;5052074;28;19920;-90
2023/08/03 05:29:49;;;;;;;;;;;;;;;34.94;31.71;97051.19;5059443;28;19925;-90
2023/08/03 05:32:15;;;;;;;;;;;;;;;34.85;31.86;97055.13;5052734;28;19917;-90
2023/08/03 05:34:41;;;;;;;;;;;;;;;34.86;32.07;97056.69;5063276;28;19928;-90
2023/08/03 05:37:07;;;;;;;;;;;;;;;34.82;31.48;97049.75;5070562;28;20012;-90
2023/08/03 05:39:33;;;;;;;;;;;;;;;34.70;31.98;97054.78;5070651;28;20003;-90
2023/08/03 05:42:00;;;;;;;;;;;;;;;34.58;32.35;97056.94;5065719;28;19929;-90
2023/08/03 05:44:27;;;;;;;;;;;;;;;34.68;31.71;97052.44;5053798;28;19920;-90
2023/08/03 05:46:53;;;;;;;;;;;;;;;34.88;31.84;97056.94;5074054;28;20015;-90
2023/08/03 05:49:19;;;;;;;;;;;;;;;34.94;31.56;97054.03;5076591;28;20419;-90
2023/08/03 05:51:45;;;;;;;;;;;;;;;34.99;31.80;97059.69;5080212;28;19920;-90
2023/08/03 05:54:14;;;;;;;;;;;;;;;35.12;32.00;97050.50;5078742;28;19923;-90
2023/08/03 05:56:41;;;;;;;;;;;;;;;35.19;32.30;97049.91;5075804;28;20400;-90
2023/08/03 05:59:13;;;;;;;;;;;;;;;35.09;31.92;97055.22;5072529;28;19920;-90
2023/08/03 06:01:39;;;;;;;;;;;;;;;35.21;31.29;97050.16;5069451;28;19923;-90
2023/08/03 06:04:09;;;;;;;;;;;;;;;35.12;33.32;97061.94;5053804;28;20288;-90
2023/08/03 06:06:36;;;;;;;;;;;;;;;35.18;32.58;97071.19;5053744;28;19917;-89
2023/08/03 06:09:03;;;;;;;;;;;;;;;35.00;32.44;97063.31;5053769;28;19969;-90
2023/08/03 06:11:30;;;;;;;;;;;;;;;34.90;33.18;97064.94;5053535;28;19929;-90
2023/08/03 06:13:57;;;;;;;;;;;;;;;34.89;33.00;97060.56;5053684;28;19917;-90
2023/08/03 06:16:24;;;;;;;;;;;;;;;34.96;33.82;97065.69;5053374;28;20346;-90
2023/08/03 06:18:54;;;;;;;;;;;;;;;35.06;33.11;97056.25;5052918;28;19929;-90
2023/08/03 06:21:21;;;;;;;;;;;;;;;35.09;32.29;97051.56;5053744;28;19923;-90
2023/08/03 06:23:48;;;;;;;;;;;;;;;34.77;33.01;97048.50;5053823;28;19940;-90
2023/08/03 06:26:15;;;;;;;;;;;;;;;34.55;33.73;97040.88;5053685;28;20270;-90
2023/08/03 06:28:42;;;;;;;;;;;;;;;34.78;32.99;97034.97;5053413;28;19946;-90
2023/08/03 06:31:19;;;;;;;;;;;;;;;34.57;33.41;97038.28;5053064;28;19931;-90
2023/08/03 06:33:46;;;;;;;;;;;;;;;34.69;32.95;97039.72;5053436;28;20009;-90
2023/08/03 06:36:25;;;;;;;;;;;;;;;34.74;33.24;97050.31;5061406;28;19917;-90
2023/08/03 06:38:51;;;;;;;;;;;;;;;34.54;33.14;97053.59;5072132;28;19927;-90
2023/08/03 06:41:17;;;;;;;;;;;;;;;34.40;33.48;97051.84;5073589;28;19943;-89
2023/08/03 06:43:44;;;;;;;;;;;;;;;34.38;33.80;97051.59;5053937;27;19975;-90
2023/08/03 06:46:10;;;;;;;;;;;;;;;34.41;33.37;97046.94;5053342;28;19923;-90
2023/08/03 06:48:36;;;;;;;;;;;;;;;34.42;33.77;97052.13;5053461;28;19975;-90
2023/08/03 06:51:02;;;;;;;;;;;;;;;34.50;33.68;97058.78;5053355;28;19916;-90
2023/08/03 06:53:28;;;;;;;;;;;;;;;34.49;33.21;97050.75;5053616;28;20377;-90
2023/08/03 06:55:55;;;;;;;;;;;;;;;34.53;33.47;97063.47;5053085;28;20078;-90
2023/08/03 06:58:21;;;;;;;;;;;;;;;34.60;33.66;97071.44;5052786;28;19917;-90
2023/08/03 07:00:47;;;;;;;;;;;;;;;34.20;35.16;97066.50;5052767;28;19916;-90
2023/08/03 07:03:13;;;;;;;;;;;;;;;33.90;34.66;97080.63;5052982;28;19924;-90
2023/08/03 07:05:40;;;;;;;;;;;;;;;33.89;34.32;97079.09;5052853;28;19920;-90
2023/08/03 07:08:06;;;;;;;;;;;;;;;33.77;34.07;97083.28;5053234;27;19940;-91
2023/08/03 07:10:33;;;;;;;;;;;;;;;33.13;36.22;97095.88;5063748;28;19923;-90
2023/08/03 07:12:59;;;;;;;;;;;;;;;33.53;34.70;97090.88;5072454;28;19975;-90
2023/08/03 07:15:25;;;;;;;;;;;;;;;33.76;34.85;97089.50;5072865;27;19968;-90
2023/08/03 07:17:51;;;;;;;;;;;;;;;33.32;35.67;97105.41;5072723;28;19916;-90
2023/08/03 07:20:18;;;;;;;;;;;;;;;33.56;34.88;97101.25;5072731;28;19941;-90
2023/08/03 07:22:48;;;;;;;;;;;;;;;33.75;34.16;97114.34;5072574;28;19912;-90
2023/08/03 07:25:14;;;;;;;;;;;;;;;33.92;33.33;97119.97;5071322;27;19916;-91
2023/08/03 07:27:41;;;;;;;;;;;;;;;33.91;34.20;97118.44;5071058;28;19923;-90
2023/08/03 07:30:07;;;;;;;;;;;;;;;34.13;34.13;97120.44;5071170;27;19917;-90
2023/08/03 07:32:34;;;;;;;;;;;;;;;34.19;32.77;97135.44;5060477;27;19925;-91
2023/08/03 07:35:00;;;;;;;;;;;;;;;34.12;32.99;97136.78;5052423;28;19920;-90
2023/08/03 07:37:27;;;;;;;;;;;;;;;34.18;32.08;97143.22;5052370;28;19920;-92
2023/08/03 07:39:53;;;;;;;;;;;;;;;33.87;31.94;97160.66;5052375;28;19924;-91
2023/08/03 07:42:19;;;;;;;;;;;;;;;33.88;32.00;97162.22;5052029;28;19924;-91
2023/08/03 07:44:45;;;;;;;;;;;;;;;33.77;32.42;97180.09;5064985;28;19924;-91
2023/08/03 07:47:11;;;;;;;;;;;;;;;32.58;34.44;97195.38;5071289;28;19920;-91
2023/08/03 07:49:36;;;;;;;;;;;;;;;31.77;37.75;97210.19;5073002;28;20408;-91
2023/08/03 07:52:03;;;;;;;;;;;;;;;32.04;37.00;97208.84;5073235;28;19916;-90
2023/08/03 07:54:30;;;;;;;;;;;;;;;32.39;36.16;97231.97;5073108;28;20397;-91
2023/08/03 07:56:56;;;;;;;;;;;;;;;31.40;37.87;97229.28;5072555;27;19999;-90
2023/08/03 07:59:22;;;;;;;;;;;;;;;31.39;37.27;97224.91;5072774;28;20269;-93
2023/08/03 08:01:48;;;;;;;;;;;;;;;31.57;36.37;97238.72;5059379;28;19927;-91
2023/08/03 08:04:14;;;;;;;;;;;;;;;31.02;37.52;97238.22;5051705;28;20277;-91
2023/08/03 08:06:40;;;;;;;;;;;;;;;31.30;38.48;97251.38;5051331;28;19920;-90
2023/08/03 08:09:07;;;;;;;;;;;;;;;31.86;36.16;97263.94;5034232;28;19920;-91
2023/08/03 08:11:33;;;;;;;;;;;;;;;32.17;35.20;97253.81;5051512;28;19925;-91
2023/08/03 08:13:59;;;;;;;;;;;;;;;32.11;37.27;97255.84;5052075;28;20297;-91
2023/08/03 08:16:25;;;;;;;;;;;;;;;31.92;34.52;97259.09;5052343;28;19921;-91
2023/08/03 08:18:51;;;;;;;;;;;;;;;31.63;33.49;97238.75;5052473;28;19924;-90
2023/08/03 08:21:17;;;;;;;;;;;;;;;31.95;33.12;97246.69;5051793;28;19917;-91
2023/08/03 08:23:44;;;;;;;;;;;;;;;32.09;33.43;97253.53;5050528;28;19952;-91
2023/08/03 08:26:09;;;;;;;;;;;;;;;32.29;32.68;97263.94;5051218;28;19917;-91
2023/08/03 08:28:35;;;;;;;;;;;;;;;32.30;32.55;97259.81;5051735;28;19978;-91
2023/08/03 08:31:02;;;;;;;;;;;;;;;32.32;32.31;97258.03;5051789;28;19920;-91
2023/08/03 08:33:28;;;;;;;;;;;;;;;32.52;32.43;97274.13;5051614;28;19917;-91
2023/08/03 08:35:54;;;;;;;;;;;;;;;32.78;32.55;97293.88;5052091;28;20293;-91
2023/08/03 08:38:20;;;;;;;;;;;;;;;32.98;32.90;97290.84;5051488;28;19924;-91
2023/08/03 08:40:46;;;;;;;;;;;;;;;33.02;33.10;97285.69;5049943;28;19917;-91
2023/08/03 08:43:12;;;;;;;;;;;;;;;32.92;33.47;97287.97;5051454;28;19965;-91
2023/08/03 08:45:38;;;;;;;;;;;;;;;32.84;33.05;97281.22;5051296;28;19921;-91
2023/08/03 08:48:05;;;;;;;;;;;;;;;32.88;33.79;97284.59;5051419;28;19917;-91
2023/08/03 08:50:32;;;;;;;;;;;;;;;33.20;32.68;97288.81;5051372;28;19952;-91
2023/08/03 08:52:58;;;;;;;;;;;;;;;33.04;32.20;97283.88;5051896;28;19917;-91
2023/08/03 08:55:28;;;;;;;;;;;;;;;33.15;31.54;97286.75;5051319;28;19917;-91
2023/08/03 08:57:55;;;;;;;;;;;;;;;33.25;31.99;97296.59;5051299;28;19952;-91
2023/08/03 09:00:24;;;;;;;;;;;;;;;33.22;31.25;97289.09;5051149;28;19917;-91
2023/08/03 09:02:54;;;;;;;;;;;;;;;33.09;32.58;97294.50;5051222;28;19917;-91
2023/08/03 09:05:21;;;;;;;;;;;;;;;33.34;32.38;97279.25;5051403;28;19924;-91
2023/08/03 09:08:04;;;;;;;;;;;;;;;33.21;32.06;97261.16;5068684;28;20008;-92
2023/08/03 09:10:30;;;;;;;;;;;;;;;32.93;33.57;97275.28;5051791;28;19964;-91
2023/08/03 09:12:59;;;;;;;;;;;;;;;33.28;32.54;97301.22;5050761;28;20374;-91
2023/08/03 09:15:43;;;;;;;;;;;;;;;33.51;31.65;97292.72;5051016;28;19962;-91
2023/08/03 09:18:09;;;;;;;;;;;;;;;33.32;32.43;97296.09;5050481;28;20277;-91
2023/08/03 09:20:35;;;;;;;;;;;;;;;33.23;31.96;97281.31;5050334;28;19976;-92
2023/08/03 09:23:01;;;;;;;;;;;;;;;33.15;32.91;97268.88;5050576;28;19964;-92
2023/08/03 09:25:27;;;;;;;;;;;;;;;32.78;32.61;97271.13;5051552;28;19920;-92
2023/08/03 09:27:54;;;;;;;;;;;;;;;32.50;34.09;97268.97;5050778;28;20421;-91
2023/08/03 09:30:21;;;;;;;;;;;;;;;32.17;33.11;97246.06;5050843;28;19927;-91
2023/08/03 09:32:47;;;;;;;;;;;;;;;32.05;33.26;97233.88;5064819;28;19963;-91
2023/08/03 09:35:16;;;;;;;;;;;;;;;32.18;34.13;97272.41;5070925;27;19917;-92
2023/08/03 09:37:43;;;;;;;;;;;;;;;32.77;33.25;97270.34;5069238;27;19917;-91
2023/08/03 09:40:09;;;;;;;;;;;;;;;33.00;33.46;97263.41;5070746;28;19923;-92
2023/08/03 09:42:39;;;;;;;;;;;;;;;33.27;33.09;97279.00;5067442;28;20393;-91
2023/08/03 09:45:06;;;;;;;;;;;;;;;33.38;32.74;97268.38;5050512;28;19917;-92
2023/08/03 09:47:34;;;;;;;;;;;;;;;33.21;31.61;97246.94;5050638;28;19924;-93
2023/08/03 09:50:01;;;;;;;;;;;;;;;32.78;32.91;97219.94;5049239;28;19917;-92
2023/08/03 09:52:27;;;;;;;;;;;;;;;32.60;32.71;97221.19;5050397;28;19917;-92
2023/08/03 09:55:10;;;;;;;;;;;;;;;32.20;34.25;97219.50;5050716;28;19924;-92
2023/08/03 09:57:39;;;;;;;;;;;;;;;31.84;33.76;97225.97;5050259;28;20482;-92
2023/08/03 10:00:06;;;;;;;;;;;;;;;31.81;33.92;97233.44;5050066;28;20012;-92
2023/08/03 10:02:39;;;;;;;;;;;;;;;31.72;35.34;97215.84;5050340;28;19917;-92
2023/08/03 10:05:07;;;;;;;;;;;;;;;30.74;35.67;97207.53;5053540;28;20313;-91
2023/08/03 10:07:37;;;;;;;;;;;;;;;30.97;36.44;97228.41;5054210;28;20373;-92
2023/08/03 10:10:06;;;;;;;;;;;;;;;31.01;35.17;97205.50;5054174;28;19948;-91
2023/08/03 10:12:38;;;;;;;;;;;;;;;31.26;35.58;97208.28;5059089;28;19925;-92
2023/08/03 10:15:08;;;;;;;;;;;;;;;31.40;35.81;97217.94;5055572;28;19917;-91
2023/08/03 10:17:35;;;;;;;;;;;;;;;31.27;35.24;97218.34;5051116;28;19970;-92
2023/08/03 10:20:03;;;;;;;;;;;;;;;31.64;34.43;97235.44;5050078;28;19991;-92
2023/08/03 10:22:29;;;;;;;;;;;;;;;31.94;34.44;97235.84;5050114;28;19946;-91
2023/08/03 10:25:14;;;;;;;;;;;;;;;31.89;33.73;97217.50;5050443;28;20414;-92
2023/08/03 10:27:40;;;;;;;;;;;;;;;32.00;34.91;97197.69;5048826;28;19917;-91
2023/08/03 10:30:06;;;;;;;;;;;;;;;31.64;33.71;97201.38;5050812;28;19962;-91
2023/08/03 10:32:32;;;;;;;;;;;;;;;31.50;34.96;97182.44;5053697;28;20000;-93
2023/08/03 10:35:17;;;;;;;;;;;;;;;31.81;35.32;97190.88;5055952;28;19960;-91
2023/08/03 10:37:45;;;;;;;;;;;;;;;32.32;34.65;97214.63;5053473;28;19923;-91
2023/08/03 10:40:21;;;;;;;;;;;;;;;32.42;33.55;97211.03;5053352;28;20420;-92
2023/08/03 10:43:06;;;;;;;;;;;;;;;32.34;32.80;97217.72;5053767;28;19963;-91
2023/08/03 10:45:32;;;;;;;;;;;;;;;32.22;34.25;97207.59;5053267;28;20107;-92
2023/08/03 10:48:17;;;;;;;;;;;;;;;32.56;33.02;97209.28;5053243;28;19916;-92
2023/08/03 10:51:03;;;;;;;;;;;;;;;32.80;34.22;97225.88;5052111;28;19968;-91
2023/08/03 10:53:29;;;;;;;;;;;;;;;33.15;32.73;97231.91;5053242;28;19942;-91
2023/08/03 10:56:05;;;;;;;;;;;;;;;33.16;33.64;97245.63;5053054;28;19917;-91
2023/08/03 10:58:40;;;;;;;;;;;;;;;33.34;32.74;97245.13;5051809;28;19952;-90
2023/08/03 11:01:06;;;;;;;;;;;;;;;33.28;32.50;97250.00;5055957;28;19925;-92
2023/08/03 11:03:36;;;;;;;;;;;;;;;33.36;32.18;97248.22;5059373;28;19976;-90
2023/08/03 11:06:03;;;;;;;;;;;;;;;33.22;32.46;97248.47;5072030;28;20019;-90
2023/08/03 11:08:29;;;;;;;;;;;;;;;33.07;33.00;97260.09;5062153;28;19923;-90
2023/08/03 11:10:55;;;;;;;;;;;;;;;33.18;32.28;97250.78;5052850;28;19916;-91
2023/08/03 11:13:21;;;;;;;;;;;;;;;32.89;32.90;97251.22;5052668;28;19964;-90
2023/08/03 11:15:48;;;;;;;;;;;;;;;32.69;32.05;97247.34;5052787;28;19924;-92
2023/08/03 11:18:16;;;;;;;;;;;;;;;32.52;33.57;97248.56;5052519;28;20015;-90
2023/08/03 11:20:42;;;;;;;;;;;;;;;32.80;33.33;97254.31;5052596;28;20059;-91
2023/08/03 11:23:11;;;;;;;;;;;;;;;32.83;32.89;97262.63;5052581;28;19924;-90
2023/08/03 11:25:38;;;;;;;;;;;;;;;33.03;32.81;97262.41;5053130;27;20396;-91
2023/08/03 11:28:04;;;;;;;;;;;;;;;33.08;33.16;97250.28;5052483;28;19917;-90
2023/08/03 11:30:30;;;;;;;;;;;;;;;32.98;32.38;97231.84;5052515;28;19924;-90
2023/08/03 11:32:59;;;;;;;;;;;;;;;32.83;33.09;97256.94;5053505;28;19959;-90
2023/08/03 11:35:25;;;;;;;;;;;;;;;33.11;32.42;97254.16;5072492;28;20266;-90
2023/08/03 11:37:51;;;;;;;;;;;;;;;33.11;32.81;97257.00;5072390;27;19961;-91
2023/08/03 11:40:17;;;;;;;;;;;;;;;32.93;33.20;97258.22;5072560;28;19921;-90
2023/08/03 11:42:44;;;;;;;;;;;;;;;32.94;33.15;97262.63;5058526;27;19932;-90
2023/08/03 11:45:12;;;;;;;;;;;;;;;33.04;33.24;97263.97;5052303;28;19924;-90
2023/08/03 11:47:45;;;;;;;;;;;;;;;33.12;32.86;97273.53;5051999;28;19917;-90
2023/08/03 11:50:11;;;;;;;;;;;;;;;33.40;32.79;97265.00;5052172;28;19917;-90
2023/08/03 11:52:37;;;;;;;;;;;;;;;33.32;32.82;97266.84;5052421;28;20296;-90
2023/08/03 11:55:03;;;;;;;;;;;;;;;33.44;32.19;97279.78;5052034;28;19921;-90
2023/08/03 12:00:15;;;;;;;;;;;;;;;32.98;32.93;97260.31;5052933;28;19923;-90
2023/08/03 12:02:45;;;;;;;;;;;;;;;33.11;33.42;97274.06;5051830;28;19955;-90
2023/08/03 12:05:12;;;;;;;;;;;;;;;33.16;33.45;97288.31;5050549;28;19923;-90
2023/08/03 12:07:39;;;;;;;;;;;;;;;33.39;32.69;97274.88;5052235;27;20286;-90
2023/08/03 12:10:14;;;;;;;;;;;;;;;33.15;32.71;97268.88;5062880;28;19917;-90
2023/08/03 12:12:43;;;;;;;;;;;;;;;33.03;33.11;97267.31;5071759;28;20444;-90
2023/08/03 12:15:09;;;;;;;;;;;;;;;32.89;33.43;97254.06;5070603;27;19989;-90
2023/08/03 12:17:35;;;;;;;;;;;;;;;32.70;33.91;97262.31;5070981;28;19917;-90
2023/08/03 12:20:02;;;;;;;;;;;;;;;32.60;34.04;97261.00;5072047;27;19960;-90
2023/08/03 12:22:28;;;;;;;;;;;;;;;32.46;33.98;97264.78;5071997;27;20008;-90
2023/08/03 12:24:54;;;;;;;;;;;;;;;32.58;34.31;97269.28;5071818;27;19940;-90
2023/08/03 12:27:20;;;;;;;;;;;;;;;32.51;34.09;97281.13;5071578;28;20408;-90
2023/08/03 12:29:46;;;;;;;;;;;;;;;32.52;34.06;97277.75;5071698;28;19920;-90
2023/08/03 12:32:12;;;;;;;;;;;;;;;32.73;34.09;97281.19;5069373;27;19925;-90
2023/08/03 12:34:38;;;;;;;;;;;;;;;33.12;33.83;97295.50;5066764;28;19923;-90
2023/08/03 12:37:04;;;;;;;;;;;;;;;33.25;33.81;97273.81;5071493;28;20300;-90
2023/08/03 12:39:30;;;;;;;;;;;;;;;33.16;32.98;97290.38;5071583;28;19925;-90
2023/08/03 12:41:56;;;;;;;;;;;;;;;32.94;33.49;97284.59;5071733;28;19925;-90
2023/08/03 12:44:24;;;;;;;;;;;;;;;33.12;34.02;97286.97;5071345;28;19976;-90
2023/08/03 12:46:50;;;;;;;;;;;;;;;33.58;33.01;97284.47;5071207;28;19929;-90
2023/08/03 12:49:18;;;;;;;;;;;;;;;33.86;32.57;97278.75;5070495;28;19920;-90